Time;durP1;ratioP1;P1;durP2;ratioP2;P2;SDS_P1;SDS_P2;PMS_P1;PMS_P2;Temp;Humidity;BMP_temperature;BMP_pressure;BME280_temperature;BME280_humidity;BME280_pressure;Samples;Min_cycle;Max_cycle;Signal;HPM_P1;HPM_P2
2023/01/17 00:01:44;;;;;;;0.27;0.20;;;;;;;-145.18;100.00;46701.41;6152122;23;20009;-76
2023/01/17 00:09:53;;;;;;;3.97;0.70;;;;;;;-145.18;100.00;46699.47;6152326;23;20068;-75
2023/01/17 00:12:19;;;;;;;1.67;0.93;;;;;;;-145.18;100.00;46691.66;6151668;23;20061;-75
2023/01/17 00:14:46;;;;;;;2.92;0.30;;;;;;;-145.18;100.00;46701.41;6152507;23;20005;-75
2023/01/17 00:17:11;;;;;;;3.03;1.00;;;;;;;-145.18;100.00;46705.31;6151771;23;20013;-74
2023/01/17 01:34:15;;;;;;;4.97;0.43;;;;;;;-145.18;100.00;46693.59;6153823;23;20641;-74
2023/01/17 01:36:41;;;;;;;6.00;1.10;;;;;;;-145.18;100.00;46695.56;6153428;23;20240;-74
2023/01/17 01:39:07;;;;;;;7.50;0.77;;;;;;;-145.18;100.00;46697.50;6153815;23;20029;-74
2023/01/17 01:41:32;;;;;;;11.60;0.80;;;;;;;-145.18;100.00;46699.47;6153220;23;20032;-75
2023/01/17 01:43:58;;;;;;;5.63;0.50;;;;;;;-145.18;100.00;46691.66;6152006;23;20538;-75
2023/01/17 01:46:29;;;;;;;5.60;0.47;;;;;;;-145.18;100.00;46697.50;6153125;23;20064;-74
2023/01/17 01:49:16;;;;;;;13.32;0.70;;;;;;;-145.18;100.00;46697.50;6153893;23;20013;-75
2023/01/17 01:51:46;;;;;;;6.68;0.52;;;;;;;-145.18;100.00;46691.66;6153407;23;20017;-75
2023/01/17 01:54:19;;;;;;;7.50;0.70;;;;;;;-145.18;100.00;46695.56;6153437;23;20009;-75
2023/01/17 01:56:46;;;;;;;4.00;0.73;;;;;;;-145.18;100.00;46691.66;6153036;23;20278;-75
2023/01/17 01:59:14;;;;;;;5.15;0.40;;;;;;;-145.18;100.00;46701.41;6153278;23;20035;-75
2023/01/17 02:01:40;;;;;;;3.17;0.50;;;;;;;-145.18;100.00;46701.41;6153192;23;20009;-75
2023/01/17 02:04:09;;;;;;;8.77;0.83;;;;;;;-145.18;100.00;46707.28;6155951;23;20027;-74
2023/01/17 02:06:40;;;;;;;6.47;1.20;;;;;;;-145.18;100.00;46695.56;6153208;23;20049;-74
2023/01/17 02:09:09;;;;;;;2.17;0.82;;;;;;;-145.18;100.00;46699.47;6153370;23;20013;-74
2023/01/17 02:11:39;;;;;;;10.43;0.60;;;;;;;-145.18;100.00;46709.22;6152994;23;19998;-75
2023/01/17 02:14:04;;;;;;;2.95;0.50;;;;;;;-145.18;100.00;46713.13;6153358;23;20001;-74
2023/01/17 02:16:30;;;;;;;5.23;0.70;;;;;;;-145.18;100.00;46709.22;6153217;23;20005;-75
2023/01/17 02:18:58;;;;;;;6.33;0.57;;;;;;;-145.18;100.00;46707.28;6153270;23;20085;-74
2023/01/17 02:21:29;;;;;;;2.80;1.63;;;;;;;-145.18;100.00;46707.28;6153159;23;20025;-74
2023/01/17 02:24:16;;;;;;;10.07;0.83;;;;;;;-145.18;100.00;46715.09;6153137;23;20029;-74
2023/01/17 02:26:47;;;;;;;7.47;1.05;;;;;;;-145.18;100.00;46717.03;6152847;23;20343;-75
2023/01/17 02:29:31;;;;;;;5.78;0.80;;;;;;;-145.18;100.00;46720.94;6152792;23;20006;-74
2023/01/17 02:32:06;;;;;;;11.00;1.33;;;;;;;-145.18;100.00;46719.00;6152744;23;20005;-74
2023/01/17 02:35:07;;;;;;;7.40;0.90;;;;;;;-145.18;100.00;46722.91;6153190;23;21020;-75
2023/01/17 02:37:49;;;;;;;9.23;1.50;;;;;;;-145.18;100.00;46717.03;6133121;23;20113;-74
2023/01/17 02:40:36;;;;;;;9.20;0.77;;;;;;;-145.18;100.00;46720.94;6152270;23;20020;-74
2023/01/17 02:43:07;;;;;;;5.82;0.57;;;;;;;-145.18;100.00;46722.91;6152677;23;20456;-74
2023/01/17 02:45:33;;;;;;;5.10;0.80;;;;;;;-145.18;100.00;46724.84;6153110;23;20016;-74
2023/01/17 02:47:58;;;;;;;1.07;0.60;;;;;;;-145.18;100.00;46720.94;6152539;23;20010;-74
2023/01/17 02:50:30;;;;;;;4.73;0.80;;;;;;;-145.18;100.00;46722.91;6153186;23;20093;-74
2023/01/17 02:53:43;;;;;;;8.85;0.65;;;;;;;-145.18;100.00;46722.91;6152455;23;20076;-74
2023/01/17 02:56:21;;;;;;;6.18;0.60;;;;;;;-145.18;100.00;46726.81;6132899;23;20084;-74
2023/01/17 02:59:16;;;;;;;4.65;0.60;;;;;;;-145.18;100.00;46726.81;6152938;23;20486;-74
2023/01/17 03:04:16;;;;;;;3.72;0.60;;;;;;;-145.18;100.00;46722.91;6149111;23;20044;-73
2023/01/17 03:06:49;;;;;;;3.20;0.60;;;;;;;-145.18;100.00;46715.09;6152816;23;20076;-73
2023/01/17 03:09:17;;;;;;;6.68;1.83;;;;;;;-145.18;100.00;46715.09;6152982;23;20006;-73
2023/01/17 03:11:42;;;;;;;5.63;0.95;;;;;;;-145.18;100.00;46719.00;6152932;23;20009;-72
2023/01/17 03:14:08;;;;;;;3.97;1.03;;;;;;;-145.18;100.00;46719.00;6152663;23;20498;-72
2023/01/17 03:16:34;;;;;;;6.40;1.27;;;;;;;-145.18;100.00;46720.94;6151949;23;20092;-72
2023/01/17 03:18:59;;;;;;;6.97;1.10;;;;;;;-145.18;100.00;46719.00;6152674;23;20013;-72
2023/01/17 03:21:25;;;;;;;6.50;1.17;;;;;;;-145.18;100.00;46717.03;6153179;23;20025;-72
2023/01/17 03:23:50;;;;;;;4.53;1.70;;;;;;;-145.18;100.00;46722.91;6152684;23;20009;-72
2023/01/17 03:26:16;;;;;;;10.10;1.70;;;;;;;-145.18;100.00;46717.03;6152919;23;20074;-72
2023/01/17 03:28:42;;;;;;;10.57;1.37;;;;;;;-145.18;100.00;46713.13;6152772;23;20016;-72
2023/01/17 03:31:07;;;;;;;9.07;1.20;;;;;;;-145.18;100.00;46719.00;6152977;23;20013;-72
2023/01/17 03:33:33;;;;;;;10.87;1.40;;;;;;;-145.18;100.00;46715.09;6151274;23;20017;-72
2023/01/17 03:35:58;;;;;;;11.30;1.23;;;;;;;-145.18;100.00;46720.94;6152591;23;20005;-72
2023/01/17 03:38:28;;;;;;;6.67;1.27;;;;;;;-145.18;100.00;46715.09;6153005;23;20032;-72
2023/01/17 03:40:53;;;;;;;5.75;1.60;;;;;;;-145.18;100.00;46717.03;6152907;23;20013;-72
2023/01/17 03:43:19;;;;;;;13.27;1.40;;;;;;;-145.18;100.00;46719.00;6153001;23;20009;-72
2023/01/17 03:45:48;;;;;;;11.53;1.43;;;;;;;-145.18;100.00;46719.00;6152984;23;20021;-72
2023/01/17 03:48:13;;;;;;;6.40;1.40;;;;;;;-145.18;100.00;46713.13;6152280;23;20063;-72
2023/01/17 03:50:38;;;;;;;6.80;1.40;;;;;;;-145.18;100.00;46715.09;6152690;23;20006;-72
2023/01/17 03:53:04;;;;;;;9.13;1.40;;;;;;;-145.18;100.00;46715.09;6152274;23;20006;-72
2023/01/17 03:55:29;;;;;;;16.37;1.30;;;;;;;-145.18;100.00;46715.09;6153142;23;20040;-72
2023/01/17 03:57:54;;;;;;;11.50;2.00;;;;;;;-145.18;100.00;46705.31;6152363;23;20017;-71
2023/01/17 04:00:20;;;;;;;13.50;1.67;;;;;;;-145.18;100.00;46715.09;6151378;23;20495;-72
2023/01/17 04:02:45;;;;;;;9.13;1.20;;;;;;;-145.18;100.00;46711.19;6151964;23;20033;-72
2023/01/17 04:05:11;;;;;;;8.37;0.93;;;;;;;-145.18;100.00;46711.19;6152697;23;20014;-72
2023/01/17 04:07:36;;;;;;;7.13;1.00;;;;;;;-145.18;100.00;46717.03;6152696;23;20009;-72
2023/01/17 04:10:02;;;;;;;6.30;0.80;;;;;;;-145.18;100.00;46713.13;6152400;23;20016;-72
2023/01/17 04:12:27;;;;;;;6.57;1.10;;;;;;;-145.18;100.00;46715.09;6150561;23;20045;-72
2023/01/17 04:14:53;;;;;;;28.47;3.67;;;;;;;-145.18;100.00;46711.19;6150855;23;20068;-72
2023/01/17 04:17:19;;;;;;;5.57;0.90;;;;;;;-145.18;100.00;46707.28;6152314;23;20093;-72
2023/01/17 04:19:45;;;;;;;4.93;0.73;;;;;;;-145.18;100.00;46715.09;6153147;23;20081;-72
2023/01/17 04:22:11;;;;;;;4.73;0.90;;;;;;;-145.18;100.00;46713.13;6151981;23;20032;-72
2023/01/17 04:24:36;;;;;;;4.97;1.00;;;;;;;-145.18;100.00;46720.94;6152703;23;20606;-72
2023/01/17 04:27:03;;;;;;;11.27;1.17;;;;;;;-145.18;100.00;46713.13;6152480;23;20347;-72
2023/01/17 04:29:28;;;;;;;8.90;1.42;;;;;;;-145.18;100.00;46717.03;6152523;23;20013;-72
2023/01/17 04:31:53;;;;;;;6.23;1.13;;;;;;;-145.18;100.00;46711.19;6152283;23;20443;-72
2023/01/17 04:34:19;;;;;;;14.93;0.90;;;;;;;-145.18;100.00;46717.03;6152251;23;20010;-72
2023/01/17 04:36:44;;;;;;;9.10;0.80;;;;;;;-145.18;100.00;46713.13;6152445;23;20010;-72
2023/01/17 04:39:09;;;;;;;7.50;1.00;;;;;;;-145.18;100.00;46713.13;6152233;23;20013;-72
2023/01/17 04:41:35;;;;;;;7.33;1.60;;;;;;;-145.18;100.00;46717.03;6152426;23;20044;-72
2023/01/17 04:44:00;;;;;;;7.87;0.90;;;;;;;-145.18;100.00;46713.13;6152136;23;20014;-72
2023/01/17 04:46:26;;;;;;;7.53;1.10;;;;;;;-145.18;100.00;46715.09;6152613;23;20401;-72
2023/01/17 04:48:51;;;;;;;8.13;1.07;;;;;;;-145.18;100.00;46713.13;6152037;23;20470;-72
2023/01/17 04:51:17;;;;;;;16.43;1.20;;;;;;;-145.18;100.00;46713.13;6152610;23;20005;-72
2023/01/17 04:53:42;;;;;;;7.17;1.30;;;;;;;-145.18;100.00;46705.31;6151905;23;20390;-72
2023/01/17 04:56:08;;;;;;;10.27;1.20;;;;;;;-145.18;100.00;46711.19;6150647;23;20001;-72
2023/01/17 04:58:33;;;;;;;11.47;1.03;;;;;;;-145.18;100.00;46711.19;6152281;23;20464;-72
2023/01/17 05:01:03;;;;;;;6.00;1.27;;;;;;;-145.18;100.00;46717.03;6152426;23;20009;-72
2023/01/17 05:03:28;;;;;;;10.02;1.17;;;;;;;-145.18;100.00;46717.03;6151267;23;20018;-71
2023/01/17 05:05:54;;;;;;;5.67;1.27;;;;;;;-145.18;100.00;46711.19;6152124;23;20343;-72
2023/01/17 05:08:19;;;;;;;12.77;1.00;;;;;;;-145.18;100.00;46711.19;6152408;23;20430;-72
2023/01/17 05:10:45;;;;;;;10.77;1.50;;;;;;;-145.18;100.00;46709.22;6152285;23;20010;-72
2023/01/17 05:13:11;;;;;;;10.07;1.45;;;;;;;-145.18;100.00;46707.28;6151590;23;20009;-71
2023/01/17 05:15:37;;;;;;;11.83;1.20;;;;;;;-145.18;100.00;46715.09;6152350;23;20439;-72
2023/01/17 05:18:07;;;;;;;8.30;1.37;;;;;;;-145.18;100.00;46711.19;6152008;23;20109;-72
2023/01/17 05:20:33;;;;;;;15.30;1.25;;;;;;;-145.18;100.00;46713.13;6152611;23;20242;-72
2023/01/17 05:22:59;;;;;;;14.35;2.17;;;;;;;-145.18;100.00;46709.22;6151674;23;20016;-72
2023/01/17 05:25:27;;;;;;;10.27;2.03;;;;;;;-145.18;100.00;46713.13;6152143;23;20330;-72
2023/01/17 05:27:53;;;;;;;11.77;1.50;;;;;;;-145.18;100.00;46713.13;6152020;23;20032;-72
2023/01/17 05:30:19;;;;;;;7.60;1.27;;;;;;;-145.18;100.00;46715.09;6152665;23;20001;-72
2023/01/17 05:32:52;;;;;;;9.07;2.05;;;;;;;-145.18;100.00;46713.13;6151906;23;20009;-72
2023/01/17 05:35:21;;;;;;;16.02;1.92;;;;;;;-145.18;100.00;46711.19;6152047;23;20010;-72
2023/01/17 05:37:48;;;;;;;13.63;1.85;;;;;;;-145.18;100.00;46717.03;6151922;23;20028;-72
2023/01/17 05:40:23;;;;;;;7.90;1.40;;;;;;;-145.18;100.00;46713.13;6152042;23;20366;-72
2023/01/17 05:42:50;;;;;;;4.88;1.15;;;;;;;-145.18;100.00;46715.09;6152044;23;20075;-72
2023/01/17 05:45:17;;;;;;;13.13;1.88;;;;;;;-145.18;100.00;46713.13;6151859;23;20009;-72
2023/01/17 05:47:47;;;;;;;8.27;1.80;;;;;;;-145.18;100.00;46711.19;6151965;23;20009;-72
2023/01/17 05:50:14;;;;;;;8.90;1.90;;;;;;;-145.18;100.00;46711.19;6152364;23;20009;-72
2023/01/17 05:52:40;;;;;;;9.05;1.75;;;;;;;-145.18;100.00;46715.09;6151904;23;20092;-72
2023/01/17 05:55:06;;;;;;;8.03;1.90;;;;;;;-145.18;100.00;46709.22;6151950;23;20044;-72
2023/01/17 05:57:33;;;;;;;6.85;2.00;;;;;;;-145.18;100.00;46715.09;6151899;23;20338;-72
2023/01/17 05:59:58;;;;;;;8.82;1.70;;;;;;;-145.18;100.00;46715.09;6151595;23;20006;-72
2023/01/17 06:02:24;;;;;;;9.83;1.57;;;;;;;-145.18;100.00;46717.03;6151323;23;20052;-72
2023/01/17 06:04:49;;;;;;;12.83;1.77;;;;;;;-145.18;100.00;46717.03;6151412;23;20391;-72
2023/01/17 06:07:15;;;;;;;5.53;1.63;;;;;;;-145.18;100.00;46705.31;6151835;23;20014;-72
2023/01/17 06:09:40;;;;;;;13.43;1.93;;;;;;;-145.18;100.00;46707.28;6151521;23;20010;-72
2023/01/17 06:12:06;;;;;;;9.63;2.70;;;;;;;-145.18;100.00;46707.28;6151557;23;20339;-72
2023/01/17 06:14:31;;;;;;;6.47;2.00;;;;;;;-145.18;100.00;46715.09;6152351;23;20006;-72
2023/01/17 06:16:56;;;;;;;9.80;2.50;;;;;;;-145.18;100.00;46717.03;6153184;23;20021;-72
2023/01/17 06:19:22;;;;;;;12.43;1.70;;;;;;;-145.18;100.00;46715.09;6153638;23;20080;-72
2023/01/17 06:21:47;;;;;;;8.67;1.80;;;;;;;-145.18;100.00;46715.09;6153436;23;20009;-72
2023/01/17 06:24:12;;;;;;;8.57;1.80;;;;;;;-145.18;100.00;46719.00;6153347;23;20076;-71
2023/01/17 06:26:38;;;;;;;11.33;4.80;;;;;;;-145.18;100.00;46713.13;6153650;23;20009;-72
2023/01/17 06:29:03;;;;;;;8.97;2.07;;;;;;;-145.18;100.00;46719.00;6153278;23;20016;-71
2023/01/17 06:31:28;;;;;;;6.37;2.20;;;;;;;-145.18;100.00;46715.09;6153367;23;20006;-71
2023/01/17 06:33:54;;;;;;;13.80;3.33;;;;;;;-145.18;100.00;46717.03;6153010;23;20067;-72
2023/01/17 06:36:19;;;;;;;11.33;2.77;;;;;;;-145.18;100.00;46715.09;6153795;23;20016;-71
2023/01/17 06:38:50;;;;;;;13.10;2.30;;;;;;;-145.18;100.00;46719.00;6153346;23;20009;-71
2023/01/17 06:41:15;;;;;;;12.98;2.95;;;;;;;-145.18;100.00;46717.03;6153038;23;20009;-72
2023/01/17 06:43:40;;;;;;;7.20;2.57;;;;;;;-145.18;100.00;46715.09;6153550;23;20438;-71
2023/01/17 06:46:06;;;;;;;14.33;2.40;;;;;;;-145.18;100.00;46719.00;6153106;23;20037;-71
2023/01/17 06:48:31;;;;;;;8.40;2.30;;;;;;;-145.18;100.00;46720.94;6153190;23;20374;-71
2023/01/17 06:50:57;;;;;;;10.73;2.60;;;;;;;-145.18;100.00;46719.00;6151529;23;20020;-71
2023/01/17 06:53:22;;;;;;;10.83;2.03;;;;;;;-145.18;100.00;46719.00;6152164;23;20232;-71
2023/01/17 06:55:47;;;;;;;13.13;2.20;;;;;;;-145.18;100.00;46717.03;6151075;23;20014;-70
2023/01/17 06:58:13;;;;;;;13.07;1.93;;;;;;;-145.18;100.00;46717.03;6151793;23;20342;-71
2023/01/17 07:00:38;;;;;;;6.47;1.93;;;;;;;-145.18;100.00;46715.09;6150987;23;20050;-71
2023/01/17 07:03:04;;;;;;;16.97;2.30;;;;;;;-145.18;100.00;46717.03;6150671;23;20017;-71
2023/01/17 07:05:29;;;;;;;9.80;3.00;;;;;;;-145.18;100.00;46719.00;6151849;23;20017;-71
2023/01/17 07:07:56;;;;;;;13.70;2.43;;;;;;;-145.18;100.00;46724.84;6151850;23;20052;-71
2023/01/17 07:10:23;;;;;;;10.48;2.40;;;;;;;-145.18;100.00;46717.03;6153383;23;20012;-71
2023/01/17 07:12:48;;;;;;;13.93;3.42;;;;;;;-145.18;100.00;46717.03;6152315;23;20019;-71
2023/01/17 07:15:13;;;;;;;11.80;2.97;;;;;;;-145.18;100.00;46719.00;6152497;23;20402;-71
2023/01/17 07:17:39;;;;;;;10.87;3.83;;;;;;;-145.18;100.00;46722.91;6152236;23;20406;-71
2023/01/17 07:20:05;;;;;;;10.60;3.90;;;;;;;-145.18;100.00;46717.03;6149829;23;20251;-70
2023/01/17 07:22:31;;;;;;;14.73;3.92;;;;;;;-145.18;100.00;46720.94;6151980;23;20033;-71
2023/01/17 07:24:57;;;;;;;8.97;4.00;;;;;;;-145.18;100.00;46719.00;6152536;23;20032;-70
2023/01/17 07:27:26;;;;;;;11.95;4.38;;;;;;;-145.18;100.00;46719.00;6153166;23;20013;-70
2023/01/17 07:29:52;;;;;;;15.45;4.75;;;;;;;-145.18;100.00;46719.00;6152538;23;20386;-71
2023/01/17 07:32:17;;;;;;;17.17;6.50;;;;;;;-145.18;100.00;46720.94;6152895;23;20001;-70
2023/01/17 07:34:42;;;;;;;24.50;8.00;;;;;;;-145.18;100.00;46717.03;6152806;23;20013;-71
2023/01/17 07:37:08;;;;;;;18.53;8.37;;;;;;;-145.18;100.00;46722.91;6152602;23;20087;-71
2023/01/17 07:39:35;;;;;;;17.70;8.50;;;;;;;-145.18;100.00;46717.03;6152960;23;20041;-70
2023/01/17 07:42:00;;;;;;;18.38;8.27;;;;;;;-145.18;100.00;46717.03;6152494;23;20010;-71
2023/01/17 07:44:25;;;;;;;24.17;9.00;;;;;;;-145.18;100.00;46713.13;6152809;23;20024;-70
2023/01/17 07:46:53;;;;;;;17.33;9.37;;;;;;;-145.18;100.00;46715.09;6152162;23;20049;-71
2023/01/17 07:49:18;;;;;;;20.35;9.65;;;;;;;-145.18;100.00;46719.00;6152623;23;20009;-71
2023/01/17 07:51:45;;;;;;;21.77;9.57;;;;;;;-145.18;100.00;46715.09;6152846;23;20048;-70
2023/01/17 07:54:11;;;;;;;36.03;11.80;;;;;;;-145.18;100.00;46713.13;6152079;23;20009;-70
2023/01/17 07:56:37;;;;;;;31.70;10.10;;;;;;;-145.18;100.00;46713.13;6153438;23;20016;-70
2023/01/17 07:59:02;;;;;;;18.55;9.68;;;;;;;-145.18;100.00;46715.09;6152067;23;20494;-70
2023/01/17 08:01:28;;;;;;;20.33;10.47;;;;;;;-145.18;100.00;46711.19;6150955;23;20017;-70
2023/01/17 08:03:53;;;;;;;20.23;11.97;;;;;;;-145.18;100.00;46709.22;6151990;23;20355;-70
2023/01/17 08:06:22;;;;;;;20.33;10.77;;;;;;;-145.18;100.00;46711.19;6152609;23;20013;-70
2023/01/17 08:08:48;;;;;;;20.13;10.40;;;;;;;-145.18;100.00;46709.22;6152210;23;20052;-70
2023/01/17 08:11:14;;;;;;;21.40;10.67;;;;;;;-145.18;100.00;46707.28;6152264;23;20029;-70
2023/01/17 08:13:40;;;;;;;20.70;10.23;;;;;;;-145.18;100.00;46703.38;6152221;23;20427;-70
2023/01/17 08:16:08;;;;;;;22.42;10.35;;;;;;;-145.18;100.00;46703.38;6152520;23;20232;-70
2023/01/17 08:18:33;;;;;;;25.25;9.73;;;;;;;-145.18;100.00;46707.28;6152260;23;20004;-70
2023/01/17 08:20:58;;;;;;;26.20;11.40;;;;;;;-145.18;100.00;46711.19;6151679;23;20009;-70
2023/01/17 08:23:24;;;;;;;24.03;10.57;;;;;;;-145.18;100.00;46699.47;6152312;23;20040;-70
2023/01/17 08:25:49;;;;;;;16.67;9.97;;;;;;;-145.18;100.00;46703.38;6152325;23;20009;-70
2023/01/17 08:28:15;;;;;;;17.83;9.93;;;;;;;-145.18;100.00;46705.31;6151691;23;20101;-70
2023/01/17 08:30:40;;;;;;;18.70;9.77;;;;;;;-145.18;100.00;46703.38;6151911;23;20017;-70
2023/01/17 08:33:06;;;;;;;23.00;9.80;;;;;;;-145.18;100.00;46703.38;6151462;23;20012;-70
2023/01/17 08:35:31;;;;;;;25.97;9.50;;;;;;;-145.18;100.00;46703.38;6151749;23;20009;-70
2023/01/17 08:37:58;;;;;;;25.63;10.50;;;;;;;-145.18;100.00;46705.31;6151327;23;20016;-70
2023/01/17 08:40:24;;;;;;;19.48;9.73;;;;;;;-145.18;100.00;46703.38;6152012;23;20379;-70
2023/01/17 08:42:54;;;;;;;24.73;9.93;;;;;;;-145.18;100.00;46697.50;6152193;23;20057;-70
2023/01/17 08:45:20;;;;;;;19.00;8.80;;;;;;;-145.18;100.00;46699.47;6151767;23;20243;-70
2023/01/17 08:47:45;;;;;;;21.73;9.40;;;;;;;-145.18;100.00;46697.50;6151981;23;20063;-70
2023/01/17 08:50:11;;;;;;;22.03;9.97;;;;;;;-145.18;100.00;46699.47;6151318;23;20421;-70
2023/01/17 08:52:36;;;;;;;21.67;10.33;;;;;;;-145.18;100.00;46701.41;6152435;23;20009;-70
2023/01/17 08:55:04;;;;;;;23.37;8.90;;;;;;;-145.18;100.00;46703.38;6151487;23;20426;-70
2023/01/17 08:57:31;;;;;;;24.83;9.80;;;;;;;-145.18;100.00;46703.38;6152616;23;20305;-70
2023/01/17 08:59:56;;;;;;;26.48;10.45;;;;;;;-145.18;100.00;46703.38;6151711;23;20013;-70
2023/01/17 09:02:23;;;;;;;19.10;10.73;;;;;;;-145.18;100.00;46699.47;6152140;23;20473;-70
2023/01/17 09:04:49;;;;;;;32.10;10.82;;;;;;;-145.18;100.00;46703.38;6152020;23;20020;-70
2023/01/17 09:07:17;;;;;;;26.15;11.38;;;;;;;-145.18;100.00;46699.47;6151559;23;20439;-70
2023/01/17 09:09:42;;;;;;;22.27;11.63;;;;;;;-145.18;100.00;46701.41;6152205;23;20342;-70
2023/01/17 09:12:08;;;;;;;23.50;10.57;;;;;;;-145.18;100.00;46699.47;6151936;23;20005;-70
2023/01/17 09:14:34;;;;;;;26.33;11.33;;;;;;;-145.18;100.00;46703.38;6151860;23;20041;-70
2023/01/17 09:17:00;;;;;;;25.25;11.00;;;;;;;-145.18;100.00;46705.31;6152027;23;20033;-69
2023/01/17 09:19:26;;;;;;;27.23;11.60;;;;;;;-145.18;100.00;46697.50;6152016;23;20048;-70
2023/01/17 09:21:52;;;;;;;22.80;11.02;;;;;;;-145.18;100.00;46703.38;6152152;23;20752;-69
2023/01/17 09:24:17;;;;;;;25.23;11.47;;;;;;;-145.18;100.00;46699.47;6151686;23;20009;-70
2023/01/17 09:26:43;;;;;;;26.10;11.13;;;;;;;-145.18;100.00;46703.38;6152104;23;20009;-70
2023/01/17 09:29:08;;;;;;;24.70;11.33;;;;;;;-145.18;100.00;46699.47;6151558;23;20033;-69
2023/01/17 09:31:34;;;;;;;22.97;11.47;;;;;;;-145.18;100.00;46705.31;6152174;23;20088;-69
2023/01/17 09:33:59;;;;;;;27.73;11.37;;;;;;;-145.18;100.00;46703.38;6151982;23;20016;-69
2023/01/17 09:36:32;;;;;;;23.73;10.93;;;;;;;-145.18;100.00;46703.38;6152022;23;20009;-69
2023/01/17 09:38:58;;;;;;;29.33;11.73;;;;;;;-145.18;100.00;46701.41;6151180;23;20013;-70
2023/01/17 09:41:26;;;;;;;23.23;11.53;;;;;;;-145.18;100.00;46699.47;6152032;23;20088;-70
2023/01/17 09:44:13;;;;;;;20.95;11.45;;;;;;;-145.18;100.00;46699.47;6152323;23;20081;-70
2023/01/17 09:46:43;;;;;;;28.80;11.55;;;;;;;-145.18;100.00;46701.41;6151937;23;20013;-69
2023/01/17 09:49:28;;;;;;;22.80;11.05;;;;;;;-145.18;100.00;46699.47;6151456;23;20032;-70
2023/01/17 09:51:54;;;;;;;21.15;11.18;;;;;;;-145.18;100.00;46705.31;6153428;23;20012;-70
2023/01/17 09:54:26;;;;;;;26.17;12.40;;;;;;;-145.18;100.00;46703.38;6153496;23;20028;-70
2023/01/17 09:57:16;;;;;;;23.85;11.05;;;;;;;-145.18;100.00;46701.41;6153369;23;20009;-70
2023/01/17 09:59:57;;;;;;;25.75;11.77;;;;;;;-145.18;100.00;46703.38;6153008;23;20001;-70
2023/01/17 10:02:44;;;;;;;25.65;10.90;;;;;;;-145.18;100.00;46703.38;6153161;23;20009;-70
2023/01/17 10:05:31;;;;;;;22.52;12.00;;;;;;;-145.18;100.00;46701.41;6153124;23;20002;-70
2023/01/17 10:08:06;;;;;;;26.15;11.60;;;;;;;-145.18;100.00;46701.41;6153743;23;20503;-70
2023/01/17 10:10:41;;;;;;;24.15;11.57;;;;;;;-145.18;100.00;46699.47;6153529;23;20011;-70
2023/01/17 10:13:25;;;;;;;;;;;;;;;-145.18;100.00;46697.50;6153584;23;20631;-70
2023/01/17 10:16:09;;;;;;;25.95;11.32;;;;;;;-145.18;100.00;46699.47;6151709;23;19975;-70
2023/01/17 10:19:03;;;;;;;24.60;11.65;;;;;;;-145.18;100.00;46699.47;6153400;23;20366;-70
2023/01/17 10:21:57;;;;;;;26.02;12.10;;;;;;;-145.18;100.00;46701.41;6153995;23;20069;-70
2023/01/17 10:24:50;;;;;;;18.55;11.80;;;;;;;-145.18;100.00;46695.56;6153220;23;20005;-70
2023/01/17 10:27:24;;;;;;;23.23;11.80;;;;;;;-145.18;100.00;46693.59;6153148;23;20013;-70
2023/01/17 10:29:50;;;;;;;23.75;11.60;;;;;;;-145.18;100.00;46693.59;6153235;23;20001;-70
2023/01/17 10:32:18;;;;;;;22.47;11.87;;;;;;;-145.18;100.00;46695.56;6153297;23;20013;-70
2023/01/17 10:34:52;;;;;;;21.30;10.48;;;;;;;-145.18;100.00;46691.66;6152935;23;20681;-71
2023/01/17 10:37:41;;;;;;;23.80;11.52;;;;;;;-145.18;100.00;46691.66;6153343;23;20009;-71
2023/01/17 10:40:16;;;;;;;16.60;9.97;;;;;;;-145.18;100.00;46681.88;6152962;23;20029;-70
2023/01/17 10:42:56;;;;;;;21.45;10.48;;;;;;;-145.18;100.00;46683.84;6153614;23;20227;-71
2023/01/17 10:45:27;;;;;;;17.80;10.70;;;;;;;-145.18;100.00;46677.97;6153208;23;20064;-71
2023/01/17 10:48:32;;;;;;;25.00;11.30;;;;;;;-145.18;100.00;46676.03;6153298;23;20282;-71
2023/01/17 10:51:41;;;;;;;23.50;10.90;;;;;;;-145.18;100.00;46677.97;6153029;23;20713;-71
2023/01/17 10:55:02;;;;;;;24.17;11.97;;;;;;;-145.18;100.00;46672.13;6153147;23;20247;-71
2023/01/17 10:57:38;;;;;;;21.87;10.93;;;;;;;-145.18;100.00;46660.41;6136700;23;20228;-70
2023/01/17 11:00:30;;;;;;;24.73;11.00;;;;;;;-145.18;100.00;46646.72;6152640;23;20227;-71
2023/01/17 11:02:56;;;;;;;22.77;11.10;;;;;;;-145.18;100.00;46642.81;6155364;23;20044;-71
2023/01/17 11:05:27;;;;;;;22.30;10.30;;;;;;;-145.18;100.00;46629.13;6152997;23;20326;-71
2023/01/17 11:08:22;;;;;;;14.80;9.05;;;;;;;-145.18;100.00;46603.75;6153206;23;20092;-71
2023/01/17 11:10:52;;;;;;;20.57;9.30;;;;;;;-145.18;100.00;46595.94;6133130;23;20431;-71
2023/01/17 11:13:18;;;;;;;18.57;8.83;;;;;;;-145.18;100.00;46593.97;6153072;23;20236;-70
2023/01/17 11:15:48;;;;;;;16.40;7.83;;;;;;;-145.18;100.00;46588.13;6153006;23;20332;-70
2023/01/17 11:18:17;;;;;;;17.20;7.57;;;;;;;-145.18;100.00;46588.13;6152461;23;20015;-71
2023/01/17 11:20:43;;;;;;;17.63;7.53;;;;;;;-145.18;100.00;46590.06;6153164;23;20255;-70
2023/01/17 11:23:13;;;;;;;16.13;6.57;;;;;;;-145.18;100.00;46609.59;6152710;23;20953;-71
2023/01/17 11:25:47;;;;;;;10.70;6.73;;;;;;;-145.18;100.00;46617.41;6152150;23;20012;-70
2023/01/17 11:28:20;;;;;;;13.43;6.13;;;;;;;-145.18;100.00;46636.94;6153028;23;20346;-71
2023/01/17 11:31:15;;;;;;;14.20;6.73;;;;;;;-145.18;100.00;46638.91;6152924;23;20251;-71
2023/01/17 11:34:05;;;;;;;16.13;6.33;;;;;;;-145.18;100.00;46654.53;6152293;23;20557;-73
2023/01/17 11:36:31;;;;;;;19.50;8.37;;;;;;;-145.18;100.00;46662.34;6153259;23;20302;-71
2023/01/17 11:38:56;;;;;;;23.13;11.47;;;;;;;-145.18;100.00;46670.16;6152214;23;20223;-71
2023/01/17 11:41:23;;;;;;;22.83;6.87;;;;;;;-145.18;100.00;46687.75;6153141;23;20234;-71
2023/01/17 11:43:56;;;;;;;12.80;5.20;;;;;;;-145.18;100.00;46695.56;6152376;23;20009;-71
2023/01/17 11:46:22;;;;;;;9.93;4.00;;;;;;;-145.18;100.00;46734.63;6152855;23;20338;-71
2023/01/17 11:48:53;;;;;;;10.87;4.13;;;;;;;-145.18;100.00;46795.19;6152432;23;20263;-70
2023/01/17 11:51:25;;;;;;;8.10;3.07;;;;;;;-145.18;100.00;46890.91;6152768;23;20080;-71
2023/01/17 11:53:53;;;;;;;7.87;3.43;;;;;;;-145.18;100.00;46924.09;6150731;23;20236;-71
2023/01/17 11:56:32;;;;;;;7.80;3.37;;;;;;;-145.18;100.00;46945.59;6152565;23;20331;-71
2023/01/17 11:59:18;;;;;;;10.30;2.97;;;;;;;-145.18;100.00;47006.16;6143649;23;20287;-71
2023/01/17 12:02:01;;;;;;;8.55;2.58;;;;;;;-145.18;100.00;47152.66;6152490;23;20286;-70
2023/01/17 12:04:37;;;;;;;6.83;2.10;;;;;;;-145.18;100.00;47660.63;6151119;23;20025;-70
2023/01/17 12:07:36;;;;;;;8.75;2.10;;;;;;;-145.18;100.00;47781.78;6144102;23;20259;-70
2023/01/17 12:10:32;;;;;;;5.90;2.00;;;;;;;-145.18;100.00;47760.28;6143648;23;20009;-70
2023/01/17 12:16:35;;;;;;;3.90;1.53;;;;;;;-145.18;100.00;47687.97;6147183;23;20111;-70
2023/01/17 12:19:20;;;;;;;10.33;2.70;;;;;;;-145.18;100.00;47719.25;6151634;23;20395;-70
2023/01/17 12:21:56;;;;;;;7.30;2.30;;;;;;;-145.18;100.00;47691.91;6152281;23;20331;-70
2023/01/17 12:24:25;;;;;;;6.27;2.00;;;;;;;-145.18;100.00;47721.19;6151968;23;20219;-70
2023/01/17 12:27:10;;;;;;;5.83;2.20;;;;;;;-145.18;100.00;47693.84;6151779;23;20251;-69
2023/01/17 12:29:45;;;;;;;10.73;2.33;;;;;;;-145.18;100.00;47664.53;6151962;23;20234;-70
2023/01/17 12:32:51;;;;;;;9.25;2.78;;;;;;;-145.18;100.00;47643.03;6151442;23;20239;-69
2023/01/17 12:35:24;;;;;;;7.47;2.00;;;;;;;-145.18;100.00;47645.00;6151801;23;20056;-70
2023/01/17 12:37:59;;;;;;;5.23;2.23;;;;;;;-145.18;100.00;47635.22;6152283;23;20005;-70
2023/01/17 12:40:27;;;;;;;5.93;2.40;;;;;;;-145.18;100.00;47645.00;6151230;23;20235;-70
2023/01/17 12:43:15;;;;;;;6.80;2.10;;;;;;;-145.18;100.00;47586.38;6151807;23;20228;-69
2023/01/17 12:45:47;;;;;;;4.40;1.83;;;;;;;-145.18;100.00;47555.13;6149285;23;20572;-70